Airfield :
LOGIN :

Register | Disclaimer

   EN    FR    IT 

 










Legend :    VFR   Marginal VFR   IFR   Intensive IFR   Very Intensive IFR
Visi :
Ceiling :
>= 8 km
>= 3000ft
5 to 8 km
1000 to 3000 ft
1500m to 5 km
500 to 1000 ft
800 to 1500m
200 to 500 ft
< 800m
< 200 ft
Symbols :   Thunderstorms  Fog  Heavy snow  Heavy precipitations  Wind > 20 kt
SIGMETs :     Misc.  Thunderstorms  Icing  Turbulence  Mountain Waves  Volcanic Ashes






- Airport Elevation : 392 ft
- IATA code : CDG


LFPG - Paris-Aeroport Charles De Gaulle

CURRENT METAR :
  • 071530Z 30004KT 260V360 CAVOK 15/M01 Q1018 NOSIG

EXPIRED METARs :
  • 071500Z 30006KT 280V340 CAVOK 15/M01 Q1018 NOSIG
  • 071430Z 32005KT 200V320 CAVOK 16/M00 Q1018 NOSIG
  • 071400Z 30007KT 250V030 CAVOK 15/M02 Q1019 NOSIG
  • 071330Z VRB05KT CAVOK 15/M00 Q1019 NOSIG
  • 071300Z 27007KT 180V340 CAVOK 14/M03 Q1018 NOSIG
  • 071230Z 30006KT 230V350 CAVOK 14/M01 Q1018 NOSIG

TAF TAF LFPG
Valid from the 07 at 12:00 until the 08 at 18:00 UTC


071100Z 0712/0818 30010KT CAVOK TX21/0815Z TN07/0804Z
TEMPO 0811/0817 20015G25KT
ATIS : +33 1 48 62 10 92



MET'MAP, your aeronautical weather chart ! - Copyright ORBIFLY December 2007 - Disclaimer

ORBIFLY MET'MAP TEAM :

Programming & Development : Alexandra Zaïnal
Concept & original design : Baudouin d'Aumeries
Assistance for programming : Marc-Olivier Méhu
Technical & hardware support : Manuel Goepfert

Contact : metmap@orbifly.com




SOURCES & CREDITS :

   NOAA